Time;durP1;ratioP1;P1;durP2;ratioP2;P2;SDS_P1;SDS_P2;PMS_P1;PMS_P2;Temp;Humidity;BMP_temperature;BMP_pressure;BME280_temperature;BME280_humidity;BME280_pressure;Samples;Min_cycle;Max_cycle;Signal;HPM_P1;HPM_P2
2022/12/06 00:00:12;;;;;;;7.88;5.65;;;;;;;3.88;100.00;101874.84;1030975;28;20391;-78
2022/12/06 00:00:44;;;;;;;6.35;5.70;;;;;;;3.85;100.00;101889.13;1031041;28;20297;-78
2022/12/06 00:01:19;;;;;;;6.68;5.20;;;;;;;3.86;100.00;101882.06;1028132;28;20332;-78
2022/12/06 00:01:50;;;;;;;6.03;4.85;;;;;;;4.07;100.00;101871.22;1031724;28;20312;-77
2022/12/06 00:02:22;;;;;;;8.10;5.25;;;;;;;4.02;100.00;101875.16;1035169;28;20304;-78
2022/12/06 00:02:53;;;;;;;8.07;5.93;;;;;;;4.13;100.00;101883.84;1035356;28;20422;-78
2022/12/06 00:03:25;;;;;;;9.80;6.22;;;;;;;4.12;100.00;101877.75;1034653;28;20311;-77
2022/12/06 00:03:59;;;;;;;10.15;5.97;;;;;;;4.09;100.00;101877.19;1031021;28;20328;-78
2022/12/06 00:04:30;;;;;;;6.30;5.05;;;;;;;4.00;100.00;101878.91;1027480;28;20309;-77
2022/12/06 00:05:02;;;;;;;6.95;5.65;;;;;;;4.06;100.00;101877.47;1027584;28;20822;-78
2022/12/06 00:05:34;;;;;;;9.07;6.72;;;;;;;4.01;100.00;101876.13;1038581;28;20371;-78
2022/12/06 00:06:08;;;;;;;11.82;5.75;;;;;;;4.04;100.00;101870.56;1036395;28;20312;-77
2022/12/06 00:06:43;;;;;;;9.18;6.47;;;;;;;4.05;100.00;101876.66;1027192;28;20309;-78
2022/12/06 00:07:14;;;;;;;7.30;5.68;;;;;;;3.99;100.00;101872.81;1028502;28;20306;-79
2022/12/06 00:07:46;;;;;;;8.82;5.72;;;;;;;3.96;100.00;101877.53;1027759;28;20671;-77
2022/12/06 00:08:17;;;;;;;6.95;5.53;;;;;;;3.96;100.00;101873.09;1033085;28;20668;-77
2022/12/06 00:08:50;;;;;;;8.40;4.82;;;;;;;3.97;100.00;101877.41;1034577;28;20304;-78
2022/12/06 00:09:25;;;;;;;8.70;6.93;;;;;;;3.97;100.00;101880.03;1024091;28;20302;-78
2022/12/06 00:09:57;;;;;;;7.60;5.40;;;;;;;4.01;100.00;101875.28;1026828;28;20349;-77
2022/12/06 00:10:28;;;;;;;9.23;6.35;;;;;;;3.99;100.00;101878.09;1028506;28;20862;-78
2022/12/06 00:11:27;;;;;;;8.38;7.10;;;;;;;4.02;100.00;101872.50;1028902;28;20716;-78
2022/12/06 00:11:59;;;;;;;8.50;6.80;;;;;;;4.02;100.00;101877.78;1028166;28;20309;-77
2022/12/06 00:12:30;;;;;;;8.40;6.13;;;;;;;4.06;100.00;101878.31;1026399;28;20302;-78
2022/12/06 00:13:03;;;;;;;6.97;5.35;;;;;;;4.12;100.00;101872.47;1026806;28;20313;-77
2022/12/06 00:13:35;;;;;;;11.93;6.18;;;;;;;4.12;100.00;101882.19;1023952;28;20299;-78
2022/12/06 00:14:07;;;;;;;9.80;6.18;;;;;;;4.07;100.00;101879.13;1027887;28;20313;-78
2022/12/06 00:14:38;;;;;;;8.90;6.05;;;;;;;4.03;100.00;101875.97;1023373;28;20319;-78
2022/12/06 00:15:10;;;;;;;8.45;5.80;;;;;;;4.04;100.00;101880.28;1031860;28;20300;-77
2022/12/06 00:15:42;;;;;;;6.15;4.95;;;;;;;3.95;100.00;101878.53;1034983;28;20777;-78
2022/12/06 00:16:15;;;;;;;7.50;5.63;;;;;;;4.03;100.00;101883.88;1031360;28;20331;-77
2022/12/06 00:16:47;;;;;;;9.13;6.30;;;;;;;4.01;100.00;101881.41;1031927;28;20304;-77
2022/12/06 00:17:19;;;;;;;10.85;5.95;;;;;;;4.02;100.00;101877.78;1026742;28;20314;-79
2022/12/06 00:17:51;;;;;;;7.25;5.70;;;;;;;4.03;100.00;101883.88;1024591;28;20309;-78
2022/12/06 00:18:22;;;;;;;9.73;5.95;;;;;;;4.13;100.00;101878.56;1027588;28;20389;-78
2022/12/06 00:18:54;;;;;;;7.85;5.65;;;;;;;4.01;100.00;101881.41;1025373;28;20712;-78
2022/12/06 00:19:26;;;;;;;8.20;6.13;;;;;;;4.00;100.00;101882.38;1035126;28;20304;-77
2022/12/06 00:19:58;;;;;;;8.50;5.45;;;;;;;4.01;100.00;101884.03;1037661;28;20879;-79
2022/12/06 00:20:31;;;;;;;9.00;5.57;;;;;;;3.97;100.00;101882.66;1039391;28;20793;-79
2022/12/06 00:21:09;;;;;;;7.28;5.03;;;;;;;3.99;100.00;101879.88;1035635;28;20359;-79
2022/12/06 00:21:41;;;;;;;6.53;5.43;;;;;;;3.97;100.00;101885.31;1035051;28;20296;-79
2022/12/06 00:22:12;;;;;;;7.80;5.70;;;;;;;4.00;100.00;101887.66;1030892;28;20305;-79
2022/12/06 00:22:44;;;;;;;6.15;5.18;;;;;;;4.05;100.00;101881.94;1032658;28;20298;-79
2022/12/06 00:23:16;;;;;;;9.73;5.88;;;;;;;4.16;100.00;101883.53;1030871;28;20743;-79
2022/12/06 00:23:49;;;;;;;8.65;6.18;;;;;;;4.06;100.00;101888.03;1031123;28;20337;-79
2022/12/06 00:24:21;;;;;;;8.48;6.00;;;;;;;4.03;100.00;101882.06;1030824;28;20309;-79
2022/12/06 00:24:53;;;;;;;7.40;5.78;;;;;;;4.03;100.00;101884.72;1031295;28;20320;-79
2022/12/06 00:25:25;;;;;;;9.50;6.40;;;;;;;3.96;100.00;101881.00;1031557;28;20309;-79
2022/12/06 00:25:59;;;;;;;7.20;6.25;;;;;;;3.94;100.00;101885.59;1031465;28;20854;-79
2022/12/06 00:26:31;;;;;;;7.57;6.50;;;;;;;3.96;100.00;101883.66;1027917;28;20864;-79
2022/12/06 00:27:03;;;;;;;6.32;4.95;;;;;;;3.93;100.00;101883.94;1030758;28;20312;-79
2022/12/06 00:27:34;;;;;;;8.32;5.60;;;;;;;3.94;100.00;101882.97;1031785;28;20325;-79
2022/12/06 00:28:06;;;;;;;6.20;5.20;;;;;;;3.90;100.00;101884.25;1035452;28;20702;-79
2022/12/06 00:28:38;;;;;;;6.40;5.05;;;;;;;3.93;100.00;101878.69;1035530;28;20296;-79
2022/12/06 00:29:12;;;;;;;8.55;6.10;;;;;;;3.88;100.00;101891.47;1034421;28;20300;-79
2022/12/06 00:29:43;;;;;;;6.93;5.18;;;;;;;3.94;100.00;101884.78;1030443;28;20348;-79
2022/12/06 00:30:15;;;;;;;8.02;6.20;;;;;;;3.95;100.00;101882.00;1030135;28;20660;-79
2022/12/06 00:30:46;;;;;;;7.75;6.25;;;;;;;3.95;100.00;101884.63;1035664;28;20680;-77
2022/12/06 00:31:20;;;;;;;13.77;6.35;;;;;;;3.92;100.00;101882.28;1039654;28;20300;-79
2022/12/06 00:31:51;;;;;;;6.00;5.15;;;;;;;3.93;100.00;101888.38;1040052;28;20775;-79
2022/12/06 00:32:23;;;;;;;6.90;5.53;;;;;;;3.94;100.00;101888.25;1042601;28;20322;-79
2022/12/06 00:32:54;;;;;;;7.90;5.75;;;;;;;3.96;100.00;101882.81;1043148;28;20465;-79
2022/12/06 00:33:27;;;;;;;7.35;5.20;;;;;;;3.92;100.00;101886.72;1039668;28;20291;-79
2022/12/06 00:33:59;;;;;;;6.55;5.70;;;;;;;3.88;100.00;101891.47;1035249;28;20308;-79
2022/12/06 00:34:30;;;;;;;5.63;4.93;;;;;;;3.88;100.00;101886.19;1034964;28;20868;-79
2022/12/06 00:35:02;;;;;;;7.55;5.28;;;;;;;3.93;100.00;101878.69;1035568;28;20312;-79
2022/12/06 00:35:34;;;;;;;6.18;5.25;;;;;;;3.99;100.00;101886.00;1039928;28;20296;-78
2022/12/06 00:36:09;;;;;;;8.10;5.57;;;;;;;3.97;100.00;101884.47;1043047;28;20307;-79
2022/12/06 00:36:41;;;;;;;6.88;5.72;;;;;;;3.93;100.00;101889.22;1035698;28;20690;-79
2022/12/06 00:37:13;;;;;;;6.95;5.38;;;;;;;3.92;100.00;101892.84;1030995;28;20333;-79
2022/12/06 00:37:44;;;;;;;5.80;4.93;;;;;;;3.92;100.00;101897.28;1031179;28;20309;-79
2022/12/06 00:38:16;;;;;;;7.32;4.82;;;;;;;3.91;100.00;101893.81;1035086;28;20817;-79
2022/12/06 00:38:48;;;;;;;9.90;5.38;;;;;;;3.97;100.00;101890.59;1039441;28;20348;-79
2022/12/06 00:39:19;;;;;;;5.93;4.95;;;;;;;4.06;100.00;101888.03;1043380;28;20299;-79
2022/12/06 00:39:51;;;;;;;6.75;4.95;;;;;;;3.96;100.00;101883.66;1042960;28;20295;-77
2022/12/06 00:40:22;;;;;;;7.78;5.28;;;;;;;3.93;100.00;101883.13;1038409;28;20284;-77
2022/12/06 00:41:03;;;;;;;8.43;5.80;;;;;;;3.96;100.00;101883.66;1035679;28;20304;-80
2022/12/06 00:41:35;;;;;;;8.30;5.45;;;;;;;4.02;100.00;101888.31;1038761;28;20296;-77
2022/12/06 00:42:07;;;;;;;8.02;5.85;;;;;;;4.01;100.00;101889.31;1037042;28;20100;-77
2022/12/06 00:42:38;;;;;;;8.25;5.35;;;;;;;4.06;100.00;101885.38;1038943;28;20342;-77
2022/12/06 00:43:10;;;;;;;7.45;5.28;;;;;;;4.07;100.00;101881.78;1034620;28;20388;-78
2022/12/06 00:43:42;;;;;;;7.50;5.20;;;;;;;4.02;100.00;101887.50;1035818;28;20309;-79
2022/12/06 00:44:14;;;;;;;6.10;4.88;;;;;;;3.98;100.00;101886.13;1038679;28;20306;-78
2022/12/06 00:44:46;;;;;;;7.32;6.13;;;;;;;4.04;100.00;101886.38;1038959;28;20335;-79
2022/12/06 00:45:17;;;;;;;7.32;6.40;;;;;;;4.04;100.00;101881.09;1035339;28;20312;-79
2022/12/06 00:45:49;;;;;;;11.15;6.38;;;;;;;4.03;100.00;101884.72;1034876;28;20305;-78
2022/12/06 00:46:26;;;;;;;6.78;5.25;;;;;;;4.01;100.00;101886.66;1034786;28;20309;-78
2022/12/06 00:46:58;;;;;;;6.35;5.03;;;;;;;4.00;100.00;101879.75;1033408;28;20301;-78
2022/12/06 00:47:29;;;;;;;8.07;5.72;;;;;;;3.94;100.00;101885.59;1035212;28;20305;-78
2022/12/06 00:48:01;;;;;;;10.13;6.18;;;;;;;3.96;100.00;101883.66;1035114;28;20316;-78
2022/12/06 00:48:33;;;;;;;10.52;5.90;;;;;;;3.96;100.00;101880.19;1035250;28;20354;-78
2022/12/06 00:49:06;;;;;;;12.27;6.07;;;;;;;3.90;100.00;101886.88;1031219;28;20306;-78
2022/12/06 00:49:37;;;;;;;7.32;5.32;;;;;;;3.89;100.00;101879.94;1035093;28;20319;-78
2022/12/06 00:50:09;;;;;;;8.00;5.82;;;;;;;3.88;100.00;101886.19;1032154;28;20296;-78
2022/12/06 00:50:41;;;;;;;7.50;5.35;;;;;;;3.86;100.00;101888.16;1027507;28;20357;-78
2022/12/06 00:51:14;;;;;;;11.02;6.22;;;;;;;3.89;100.00;101879.94;1027675;28;21080;-78
2022/12/06 00:51:46;;;;;;;10.02;6.68;;;;;;;3.87;100.00;101881.91;1029277;28;20309;-78
2022/12/06 00:52:17;;;;;;;6.57;5.57;;;;;;;3.88;100.00;101880.94;1035570;28;20301;-78
2022/12/06 00:52:49;;;;;;;5.90;5.07;;;;;;;3.90;100.00;101889.53;1035543;28;20305;-77
2022/12/06 00:53:21;;;;;;;6.68;5.32;;;;;;;3.89;100.00;101893.13;1035062;28;20296;-77
2022/12/06 00:53:53;;;;;;;9.05;4.90;;;;;;;3.87;100.00;101888.97;1026305;28;20310;-77
2022/12/06 00:54:24;;;;;;;8.93;5.80;;;;;;;3.89;100.00;101882.59;1025852;28;20318;-77
2022/12/06 00:54:56;;;;;;;8.57;5.53;;;;;;;3.89;100.00;101887.84;1031392;28;20305;-77
2022/12/06 00:55:27;;;;;;;7.85;6.35;;;;;;;3.90;100.00;101889.53;1030363;28;20321;-78
2022/12/06 00:55:59;;;;;;;7.32;4.70;;;;;;;3.88;100.00;101891.47;1038022;28;20375;-78
2022/12/06 00:56:31;;;;;;;8.48;5.68;;;;;;;3.90;100.00;101888.69;1032462;28;20326;-77
2022/12/06 00:57:02;;;;;;;13.90;5.72;;;;;;;3.85;100.00;101886.50;1030649;28;20372;-77
2022/12/06 00:57:34;;;;;;;7.53;5.65;;;;;;;3.85;100.00;101891.75;1031638;28;20301;-78
2022/12/06 00:58:05;;;;;;;6.25;5.10;;;;;;;3.82;100.00;101886.75;1028902;28;20298;-77
2022/12/06 00:58:37;;;;;;;6.95;4.53;;;;;;;3.81;100.00;101879.84;1035047;28;20296;-78
2022/12/06 00:59:09;;;;;;;9.48;6.03;;;;;;;3.85;100.00;101883.03;1035318;28;20351;-77
2022/12/06 00:59:40;;;;;;;8.15;5.05;;;;;;;3.83;100.00;101885.78;1030910;28;20833;-77
2022/12/06 01:00:12;;;;;;;6.18;5.03;;;;;;;3.82;100.00;101881.50;1031114;28;20320;-78
2022/12/06 01:00:44;;;;;;;6.40;4.50;;;;;;;3.83;100.00;101883.16;1031722;28;20305;-77
2022/12/06 01:01:24;;;;;;;10.27;5.38;;;;;;;3.85;100.00;101881.22;1031245;28;20301;-77
2022/12/06 01:01:55;;;;;;;8.40;5.65;;;;;;;3.84;100.00;101884.00;1030964;28;20661;-78
2022/12/06 01:02:27;;;;;;;9.20;5.68;;;;;;;3.85;100.00;101883.03;1028470;28;21090;-78
2022/12/06 01:02:59;;;;;;;8.25;5.35;;;;;;;3.87;100.00;101881.91;1032284;28;20404;-78
2022/12/06 01:03:30;;;;;;;8.65;5.50;;;;;;;3.86;100.00;101882.06;1035272;28;20391;-78
2022/12/06 01:04:06;;;;;;;7.53;6.07;;;;;;;3.87;100.00;101881.06;1035128;28;20383;-78
2022/12/06 01:04:38;;;;;;;10.82;5.47;;;;;;;3.90;100.00;101883.41;1035001;28;20300;-78
2022/12/06 01:05:10;;;;;;;8.68;5.13;;;;;;;3.88;100.00;101885.38;1031015;28;20352;-77
2022/12/06 01:05:43;;;;;;;8.90;5.90;;;;;;;3.87;100.00;101884.53;1032056;28;20787;-78
2022/12/06 01:06:15;;;;;;;9.25;5.32;;;;;;;3.89;100.00;101876.50;1031692;28;20300;-78
2022/12/06 01:06:47;;;;;;;6.35;5.75;;;;;;;3.86;100.00;101880.25;1034589;28;20415;-78
2022/12/06 01:07:18;;;;;;;6.97;5.60;;;;;;;3.88;100.00;101880.94;1030986;28;20393;-77
2022/12/06 01:07:50;;;;;;;7.22;5.50;;;;;;;3.87;100.00;101879.28;1027114;28;20386;-78
2022/12/06 01:08:21;;;;;;;8.75;4.88;;;;;;;3.88;100.00;101886.19;1026496;28;20306;-78
2022/12/06 01:08:54;;;;;;;7.88;5.68;;;;;;;3.89;100.00;101887.84;1027161;28;20436;-78
2022/12/06 01:09:29;;;;;;;8.00;5.80;;;;;;;3.89;100.00;101889.66;1031368;28;20791;-78
2022/12/06 01:10:01;;;;;;;7.85;5.43;;;;;;;3.88;100.00;101874.84;1032848;28;20644;-78
2022/12/06 01:10:33;;;;;;;9.82;5.53;;;;;;;3.90;100.00;101878.97;1034797;28;20753;-78
2022/12/06 01:11:06;;;;;;;7.88;5.20;;;;;;;3.88;100.00;101891.47;1034953;28;20305;-77
2022/12/06 01:11:38;;;;;;;6.47;4.57;;;;;;;3.99;100.00;101888.63;1031506;28;20404;-78
2022/12/06 01:12:09;;;;;;;5.57;4.85;;;;;;;3.95;100.00;101878.53;1034414;28;20439;-78
2022/12/06 01:12:41;;;;;;;7.68;5.30;;;;;;;3.96;100.00;101882.81;1031626;28;20320;-77
2022/12/06 01:13:12;;;;;;;8.95;5.57;;;;;;;3.95;100.00;101878.53;1031000;28;20359;-77
2022/12/06 01:13:44;;;;;;;6.90;5.30;;;;;;;3.97;100.00;101879.22;1034715;28;20324;-78
2022/12/06 01:14:15;;;;;;;7.15;4.47;;;;;;;4.04;100.00;101888.19;1035698;28;20285;-78
2022/12/06 01:14:47;;;;;;;8.07;7.10;;;;;;;3.97;100.00;101882.66;1039083;28;20394;-78
2022/12/06 01:15:18;;;;;;;7.07;4.50;;;;;;;3.97;100.00;101872.13;1039069;28;20385;-77
2022/12/06 01:15:50;;;;;;;7.03;4.72;;;;;;;3.98;100.00;101881.69;1039553;28;20315;-78
2022/12/06 01:16:24;;;;;;;5.90;5.10;;;;;;;3.97;100.00;101877.41;1038050;28;20382;-77
2022/12/06 01:16:55;;;;;;;10.30;6.32;;;;;;;3.99;100.00;101879.88;1037441;28;20303;-78
2022/12/06 01:17:27;;;;;;;6.88;5.10;;;;;;;3.95;100.00;101879.34;1033500;28;20304;-77
2022/12/06 01:17:58;;;;;;;6.35;5.30;;;;;;;3.97;100.00;101880.03;1034626;28;20300;-78
2022/12/06 01:18:30;;;;;;;6.25;4.90;;;;;;;3.95;100.00;101871.44;1035478;28;20335;-77
2022/12/06 01:19:03;;;;;;;7.18;5.07;;;;;;;3.94;100.00;101874.22;1038684;28;20741;-78
2022/12/06 01:19:35;;;;;;;6.00;4.82;;;;;;;3.99;100.00;101880.72;1035655;28;20350;-78
2022/12/06 01:20:07;;;;;;;7.57;5.53;;;;;;;4.00;100.00;101878.91;1038857;28;20337;-77
2022/12/06 01:20:38;;;;;;;8.68;5.45;;;;;;;4.03;100.00;101878.59;1038866;28;20379;-78
2022/12/06 01:21:12;;;;;;;7.07;5.35;;;;;;;4.10;100.00;101869.13;1039107;28;20331;-78
2022/12/06 01:21:44;;;;;;;8.30;4.88;;;;;;;4.03;100.00;101874.16;1039014;28;20635;-77
2022/12/06 01:22:16;;;;;;;7.18;5.53;;;;;;;3.96;100.00;101877.53;1030575;28;20301;-78
2022/12/06 01:22:47;;;;;;;7.63;4.82;;;;;;;4.02;100.00;101872.50;1026216;28;20349;-78
2022/12/06 01:23:19;;;;;;;8.45;5.47;;;;;;;4.00;100.00;101873.63;1027432;28;20354;-77
2022/12/06 01:23:53;;;;;;;5.88;5.07;;;;;;;4.00;100.00;101876.28;1026542;28;20313;-78
2022/12/06 01:24:24;;;;;;;8.90;5.45;;;;;;;4.11;100.00;101869.94;1027508;28;20337;-78
2022/12/06 01:24:56;;;;;;;8.82;5.38;;;;;;;4.07;100.00;101874.69;1027815;28;20298;-77
2022/12/06 01:25:29;;;;;;;9.00;5.50;;;;;;;4.04;100.00;101875.81;1031472;28;20648;-77
2022/12/06 01:26:07;;;;;;;6.63;5.10;;;;;;;4.01;100.00;101876.13;1036647;28;20301;-77
2022/12/06 01:26:38;;;;;;;6.68;4.45;;;;;;;4.11;100.00;101878.72;1034832;28;20810;-78
2022/12/06 01:27:10;;;;;;;9.18;5.45;;;;;;;4.09;100.00;101871.91;1036222;28;21998;-78
2022/12/06 01:27:41;;;;;;;7.20;5.28;;;;;;;4.07;100.00;101873.88;1035177;28;20316;-77
2022/12/06 01:28:13;;;;;;;6.32;4.43;;;;;;;4.06;100.00;101877.47;1034446;28;20333;-77
2022/12/06 01:28:44;;;;;;;6.10;5.10;;;;;;;4.03;100.00;101879.44;1034645;28;20446;-77
2022/12/06 01:29:16;;;;;;;10.05;5.60;;;;;;;4.02;100.00;101877.78;1035778;28;20289;-77
2022/12/06 01:29:47;;;;;;;6.88;5.05;;;;;;;4.08;100.00;101880.78;1038409;28;20713;-77
2022/12/06 01:30:19;;;;;;;8.60;4.82;;;;;;;4.14;100.00;101880.22;1038860;28;20306;-78
2022/12/06 01:30:50;;;;;;;8.38;5.40;;;;;;;4.11;100.00;101880.50;1034788;28;20312;-77
2022/12/06 01:31:22;;;;;;;7.60;5.53;;;;;;;4.06;100.00;101877.47;1034288;28;20334;-78
2022/12/06 01:31:54;;;;;;;9.88;5.97;;;;;;;4.15;100.00;101876.63;1031297;28;20548;-77
2022/12/06 01:32:28;;;;;;;7.80;5.25;;;;;;;4.13;100.00;101875.94;1034877;28;20304;-78
2022/12/06 01:32:59;;;;;;;8.35;5.63;;;;;;;4.08;100.00;101876.34;1030367;28;20874;-78
2022/12/06 01:33:31;;;;;;;9.27;4.85;;;;;;;4.09;100.00;101871.91;1030673;28;20309;-77
2022/12/06 01:34:02;;;;;;;7.50;5.05;;;;;;;4.06;100.00;101873.03;1030750;28;20412;-77
2022/12/06 01:34:34;;;;;;;8.00;5.10;;;;;;;4.09;100.00;101878.00;1031518;28;20368;-77
2022/12/06 01:35:06;;;;;;;6.65;5.53;;;;;;;4.10;100.00;101873.56;1038934;28;20308;-77
2022/12/06 01:35:39;;;;;;;5.88;4.35;;;;;;;4.07;100.00;101879.13;1039214;28;20341;-77
2022/12/06 01:36:24;;;;;;;7.65;4.88;;;;;;;4.02;100.00;101872.50;1036829;28;20909;-77
2022/12/06 01:36:56;;;;;;;7.65;5.43;;;;;;;4.01;100.00;101880.56;1034549;28;20731;-77
2022/12/06 01:37:27;;;;;;;8.90;6.20;;;;;;;4.08;100.00;101875.53;1029775;28;20667;-78
2022/12/06 01:37:59;;;;;;;5.85;4.28;;;;;;;4.04;100.00;101881.09;1032367;28;20388;-78
2022/12/06 01:38:36;;;;;;;8.75;5.13;;;;;;;4.10;100.00;101878.84;1028908;28;20349;-78
2022/12/06 01:39:09;;;;;;;7.68;5.57;;;;;;;4.07;100.00;101879.97;1028536;28;20337;-77
2022/12/06 01:39:41;;;;;;;9.40;5.15;;;;;;;4.00;100.00;101877.09;1026240;28;21157;-78
2022/12/06 01:40:13;;;;;;;6.45;4.63;;;;;;;4.14;100.00;101874.97;1027965;28;20385;-77
2022/12/06 01:40:46;;;;;;;8.65;4.90;;;;;;;4.13;100.00;101873.31;1027215;28;20804;-78
2022/12/06 01:41:18;;;;;;;6.93;5.10;;;;;;;4.13;100.00;101874.13;1031548;28;20914;-78
2022/12/06 01:41:50;;;;;;;7.40;5.38;;;;;;;4.18;100.00;101876.31;1035898;28;20304;-78
2022/12/06 01:42:21;;;;;;;12.88;4.57;;;;;;;4.09;100.00;101871.91;1035405;28;20304;-78
2022/12/06 01:42:53;;;;;;;7.88;5.22;;;;;;;4.20;100.00;101879.63;1034522;28;20534;-78
2022/12/06 01:43:29;;;;;;;8.90;4.80;;;;;;;4.16;100.00;101873.00;1027062;28;20370;-78
2022/12/06 01:44:02;;;;;;;10.43;5.68;;;;;;;4.22;100.00;101875.88;1027488;28;20388;-78
2022/12/06 01:44:54;;;;;;;7.70;4.63;;;;;;;4.18;100.00;101876.31;1027903;28;20306;-77
2022/12/06 01:45:26;;;;;;;11.70;5.32;;;;;;;4.17;100.00;101874.66;1034388;28;20293;-77
2022/12/06 01:46:02;;;;;;;6.20;5.03;;;;;;;4.20;100.00;101877.00;1030792;28;20375;-77
2022/12/06 01:46:40;;;;;;;6.88;4.88;;;;;;;4.15;100.00;101873.97;1034926;28;20758;-77
2022/12/06 01:47:30;;;;;;;5.97;4.78;;;;;;;4.07;100.00;101876.50;1033166;28;20301;-78
2022/12/06 01:48:01;;;;;;;5.85;4.53;;;;;;;4.09;100.00;101872.75;1030502;28;20763;-78
2022/12/06 01:48:33;;;;;;;9.40;5.05;;;;;;;4.11;100.00;101875.22;1030042;28;20372;-77
2022/12/06 01:49:11;;;;;;;5.85;4.75;;;;;;;4.18;100.00;101871.88;1031943;28;20795;-78
2022/12/06 01:49:45;;;;;;;8.77;5.43;;;;;;;4.17;100.00;101875.47;1034972;28;20296;-78
2022/12/06 01:50:26;;;;;;;7.45;5.28;;;;;;;4.19;100.00;101877.97;1034185;28;20762;-78
2022/12/06 01:50:58;;;;;;;10.13;5.20;;;;;;;4.17;100.00;101875.47;1035114;28;20379;-78
2022/12/06 01:51:30;;;;;;;8.43;5.53;;;;;;;4.16;100.00;101871.19;1034498;28;20615;-77
2022/12/06 01:52:05;;;;;;;8.50;5.68;;;;;;;4.09;100.00;101871.91;1036153;28;20346;-78
2022/12/06 01:53:04;;;;;;;9.07;5.70;;;;;;;4.06;100.00;101870.41;1035808;28;20316;-78
2022/12/06 01:53:36;;;;;;;14.40;6.45;;;;;;;4.06;100.00;101873.03;1032991;28;20399;-78
2022/12/06 01:54:10;;;;;;;6.45;4.72;;;;;;;4.07;100.00;101871.22;1035093;28;20301;-77
2022/12/06 01:54:42;;;;;;;8.55;5.40;;;;;;;4.10;100.00;101868.28;1030922;28;20898;-78
2022/12/06 01:55:14;;;;;;;10.50;5.68;;;;;;;4.21;100.00;101876.00;1027421;28;20318;-78
2022/12/06 01:55:45;;;;;;;8.10;5.35;;;;;;;4.21;100.00;101870.75;1026464;28;20408;-78
2022/12/06 01:56:18;;;;;;;8.73;5.20;;;;;;;4.26;100.00;101874.59;1027523;28;20429;-78
2022/12/06 01:56:50;;;;;;;11.75;5.90;;;;;;;4.22;100.00;101869.75;1026655;28;20302;-77
2022/12/06 01:57:22;;;;;;;8.68;5.72;;;;;;;4.18;100.00;101871.03;1026543;28;20855;-78
2022/12/06 01:57:58;;;;;;;7.32;5.53;;;;;;;4.24;100.00;101865.16;1027782;28;20309;-78
2022/12/06 01:58:34;;;;;;;9.10;6.00;;;;;;;4.21;100.00;101865.47;1032073;28;20387;-77
2022/12/06 01:59:07;;;;;;;7.38;5.03;;;;;;;4.21;100.00;101865.47;1030709;28;20306;-78
2022/12/06 01:59:39;;;;;;;6.57;5.18;;;;;;;4.18;100.00;101871.03;1030531;28;20303;-77
2022/12/06 02:00:11;;;;;;;14.20;6.25;;;;;;;4.16;100.00;101857.19;1031862;28;20412;-77
2022/12/06 02:00:43;;;;;;;10.43;5.70;;;;;;;4.20;100.00;101867.28;1035698;28;20308;-77
2022/12/06 02:01:14;;;;;;;7.85;4.80;;;;;;;4.17;100.00;101870.22;1030583;28;20313;-78
2022/12/06 02:01:46;;;;;;;11.27;5.53;;;;;;;4.15;100.00;101866.91;1030653;28;20349;-77
2022/12/06 02:02:18;;;;;;;7.95;5.43;;;;;;;4.19;100.00;101862.16;1033183;28;20383;-77
2022/12/06 02:02:50;;;;;;;10.02;5.50;;;;;;;4.17;100.00;101864.09;1035079;28;20332;-77
2022/12/06 02:03:24;;;;;;;9.27;5.43;;;;;;;4.15;100.00;101868.69;1038661;28;20399;-79
2022/12/06 02:03:57;;;;;;;8.57;6.00;;;;;;;4.24;100.00;101871.25;1034809;28;20328;-79
2022/12/06 02:04:30;;;;;;;7.53;5.63;;;;;;;4.26;100.00;101864.03;1034870;28;20362;-79
2022/12/06 02:05:02;;;;;;;8.32;5.43;;;;;;;4.25;100.00;101869.47;1034816;28;20296;-79
2022/12/06 02:05:35;;;;;;;9.07;5.80;;;;;;;4.24;100.00;101870.44;1032376;28;20348;-79
2022/12/06 02:06:11;;;;;;;8.23;6.72;;;;;;;4.15;100.00;101861.63;1037253;28;20303;-77
2022/12/06 02:06:43;;;;;;;8.48;5.78;;;;;;;4.11;100.00;101864.69;1036570;28;20914;-77
2022/12/06 02:07:14;;;;;;;8.82;5.38;;;;;;;4.17;100.00;101864.09;1031332;28;20778;-77
2022/12/06 02:07:46;;;;;;;8.20;4.95;;;;;;;4.20;100.00;101869.09;1027304;28;20810;-77
2022/12/06 02:08:19;;;;;;;9.65;5.97;;;;;;;4.22;100.00;101869.75;1026537;28;20305;-79
2022/12/06 02:08:52;;;;;;;10.10;5.85;;;;;;;4.14;100.00;101874.97;1027395;28;20310;-77
2022/12/06 02:09:25;;;;;;;9.57;5.55;;;;;;;4.18;100.00;101871.03;1028227;28;20352;-77
2022/12/06 02:09:57;;;;;;;12.23;6.28;;;;;;;4.18;100.00;101866.59;1035589;28;20292;-77
2022/12/06 02:10:30;;;;;;;6.20;5.25;;;;;;;4.10;100.00;101868.28;1035350;28;20628;-79
2022/12/06 02:11:02;;;;;;;8.88;5.82;;;;;;;4.09;100.00;101872.75;1032826;28;20332;-79
2022/12/06 02:11:34;;;;;;;9.73;5.88;;;;;;;4.06;100.00;101872.22;1032145;28;20312;-78
2022/12/06 02:12:13;;;;;;;6.43;5.45;;;;;;;4.07;100.00;101871.22;1032719;28;20349;-79
2022/12/06 02:12:47;;;;;;;8.02;5.60;;;;;;;4.07;100.00;101868.59;1035438;28;20665;-79
2022/12/06 02:13:20;;;;;;;10.68;5.45;;;;;;;4.05;100.00;101871.38;1031371;28;20289;-79
2022/12/06 02:13:52;;;;;;;9.13;5.13;;;;;;;4.06;100.00;101870.41;1027462;28;21066;-79
2022/12/06 02:14:29;;;;;;;8.73;4.95;;;;;;;4.03;100.00;101868.91;1028498;28;20784;-79
2022/12/06 02:15:00;;;;;;;8.45;5.40;;;;;;;4.04;100.00;101867.91;1032502;28;20337;-79
2022/12/06 02:16:14;;;;;;;10.32;4.65;;;;;;;4.06;100.00;101872.22;1032577;28;20313;-79
2022/12/06 02:17:10;;;;;;;7.20;5.00;;;;;;;4.02;100.00;101861.97;1035456;28;20880;-79
2022/12/06 02:17:58;;;;;;;9.23;5.15;;;;;;;4.02;100.00;101872.50;1037859;28;20308;-79
2022/12/06 02:18:44;;;;;;;9.15;5.03;;;;;;;4.06;100.00;101866.94;1037154;28;20306;-78
2022/12/06 02:19:34;;;;;;;7.82;5.57;;;;;;;4.07;100.00;101863.31;1039855;28;20335;-79
2022/12/06 02:20:24;;;;;;;10.93;6.20;;;;;;;4.15;100.00;101866.06;1039258;28;20385;-79
2022/12/06 02:21:05;;;;;;;8.82;5.03;;;;;;;4.10;100.00;101863.84;1039855;28;20358;-79
2022/12/06 02:21:48;;;;;;;6.55;4.63;;;;;;;4.08;100.00;101865.81;1039615;28;20299;-79
2022/12/06 02:22:41;;;;;;;7.53;5.50;;;;;;;4.12;100.00;101861.09;1037869;28;20077;-79
2022/12/06 02:23:24;;;;;;;8.52;5.32;;;;;;;4.19;100.00;101856.88;1039394;28;20304;-79
2022/12/06 02:24:27;;;;;;;9.15;5.40;;;;;;;4.27;100.00;101859.59;1040346;28;20785;-79
2022/12/06 02:25:23;;;;;;;9.90;4.35;;;;;;;4.17;100.00;101858.84;1039990;28;20306;-79
2022/12/06 02:26:14;;;;;;;6.00;4.90;;;;;;;4.15;100.00;101860.78;1039217;28;20291;-79
2022/12/06 02:26:52;;;;;;;7.10;5.15;;;;;;;4.14;100.00;101859.13;1033724;28;20352;-79
2022/12/06 02:28:02;;;;;;;8.40;5.22;;;;;;;4.15;100.00;101866.91;1035551;28;20049;-79
2022/12/06 02:29:02;;;;;;;8.63;5.15;;;;;;;4.21;100.00;101854.91;1033495;28;20312;-79
2022/12/06 02:29:41;;;;;;;8.32;5.15;;;;;;;4.16;100.00;101862.44;1035761;28;20297;-79
2022/12/06 02:30:17;;;;;;;8.32;5.55;;;;;;;4.17;100.00;101859.66;1036626;28;20296;-78
2022/12/06 02:30:58;;;;;;;7.65;5.18;;;;;;;4.18;100.00;101857.84;1035865;28;20323;-79
2022/12/06 02:31:39;;;;;;;10.32;5.47;;;;;;;4.16;100.00;101860.66;1035902;28;20288;-78
2022/12/06 02:32:16;;;;;;;10.13;5.47;;;;;;;4.13;100.00;101857.47;1030181;28;20354;-79
2022/12/06 02:32:57;;;;;;;7.30;4.80;;;;;;;4.22;100.00;101856.56;1030974;28;20456;-79
2022/12/06 02:33:36;;;;;;;;;;;;;;;4.23;100.00;101847.69;1031409;28;20329;-79
2022/12/06 02:34:25;;;;;;;8.85;5.65;;;;;;;4.15;100.00;101855.53;1030589;28;20020;-79
2022/12/06 02:35:03;;;;;;;6.75;4.75;;;;;;;4.30;100.00;101859.28;1031633;28;20304;-79
2022/12/06 02:35:40;;;;;;;6.05;4.88;;;;;;;4.11;100.00;101862.03;1035519;28;20403;-79
2022/12/06 02:36:26;;;;;;;13.07;5.95;;;;;;;4.06;100.00;101853.75;1035753;28;20359;-78
2022/12/06 02:37:11;;;;;;;7.00;4.75;;;;;;;4.08;100.00;101860.53;1035125;28;20375;-78
2022/12/06 02:38:00;;;;;;;9.77;5.05;;;;;;;4.10;100.00;101857.75;1029400;28;20361;-78
2022/12/06 02:38:47;;;;;;;10.27;5.70;;;;;;;4.12;100.00;101861.09;1027413;28;20435;-79
2022/12/06 02:39:47;;;;;;;6.03;4.88;;;;;;;4.28;100.00;101861.25;1028568;28;20297;-78
2022/12/06 02:40:22;;;;;;;6.80;5.05;;;;;;;4.22;100.00;101861.84;1033775;28;20399;-78